Time,TemperatureF,DewpointF,PressureIn,WindDirection,WindDirectionDegrees,WindSpeedMPH,WindSpeedGustMPH,Humidity,HourlyPrecipIn,Conditions,Clouds,dailyrainin,SoftwareType,DateUTC
2013-10-31 06:22:00,52.0,51.0,29.63,NW,325,2.0,9.0,95,0.11,,,3.83,,2013-10-31 11:22:00,
2013-10-31 06:33:00,52.0,51.0,29.63,NW,325,2.0,9.0,95,0.11,,,3.83,,2013-10-31 11:33:00,
2013-10-31 06:42:00,52.0,51.0,29.63,NW,325,2.0,9.0,95,0.11,,,3.83,,2013-10-31 11:42:00,
2013-10-31 06:52:00,52.0,51.0,29.63,NW,325,2.0,9.0,95,0.11,,,3.83,,2013-10-31 11:52:00,
2013-10-31 07:01:00,52.0,51.0,29.63,NW,325,2.0,9.0,95,0.11,,,3.83,,2013-10-31 12:01:00,
2013-10-31 08:22:00,49.0,48.0,29.56,NNE,20,7.0,11.0,95,0.09,,,4.00,,2013-10-31 13:22:00,
2013-10-31 08:42:00,49.0,48.0,29.56,NNE,20,7.0,11.0,95,0.09,,,4.00,,2013-10-31 13:42:00,
2013-10-31 08:52:00,49.0,48.0,29.56,NNE,20,7.0,11.0,95,0.09,,,4.00,,2013-10-31 13:52:00,
2013-10-31 17:03:00,54.0,47.0,29.57,WSW,243,2.0,7.0,76,0.00,,,3.35,,2013-10-31 22:03:00,
2013-10-31 17:24:00,54.0,47.0,29.57,WSW,243,2.0,7.0,76,0.00,,,3.35,,2013-10-31 22:24:00,
2013-10-31 17:34:00,54.0,47.0,29.57,WSW,243,2.0,7.0,76,0.00,,,3.35,,2013-10-31 22:34:00,
2013-10-31 17:43:00,54.0,47.0,29.57,WSW,243,2.0,7.0,76,0.00,,,3.35,,2013-10-31 22:43:00,
2013-10-31 17:53:00,54.0,47.0,29.57,WSW,243,2.0,7.0,76,0.00,,,3.35,,2013-10-31 22:53:00,
2013-10-31 19:22:00,51.0,47.0,29.58,WSW,245,2.0,4.0,87,0.00,,,2.78,,2013-11-01 00:22:00,
2013-10-31 19:32:00,51.0,47.0,29.58,WSW,245,2.0,4.0,87,0.00,,,2.78,,2013-11-01 00:32:00,
2013-10-31 19:42:00,51.0,47.0,29.58,WSW,245,2.0,4.0,87,0.00,,,2.78,,2013-11-01 00:42:00,
2013-10-31 19:52:00,51.0,47.0,29.58,WSW,245,2.0,4.0,87,0.00,,,2.78,,2013-11-01 00:52:00,
2013-10-31 20:01:00,51.0,47.0,29.58,WSW,245,2.0,4.0,87,0.00,,,2.78,,2013-11-01 01:01:00,
2013-10-31 21:03:00,48.0,45.0,29.60,SW,226,0.0,0.0,91,0.00,,,2.05,,2013-11-01 02:03:00,
2013-10-31 21:22:00,48.0,45.0,29.60,SW,226,0.0,0.0,91,0.00,,,2.05,,2013-11-01 02:22:00,
2013-10-31 21:32:00,48.0,45.0,29.60,SW,226,0.0,0.0,91,0.00,,,2.05,,2013-11-01 02:32:00,
2013-10-31 21:42:00,48.0,45.0,29.60,SW,226,0.0,0.0,91,0.00,,,2.05,,2013-11-01 02:42:00,
2013-10-31 21:52:00,48.0,45.0,29.60,SW,226,0.0,0.0,91,0.00,,,2.05,,2013-11-01 02:52:00,
2013-10-31 23:03:00,48.0,44.0,29.62,SW,221,1.0,3.0,86,0.00,,,1.31,,2013-11-01 04:03:00,
2013-10-31 23:24:00,48.0,44.0,29.62,SW,221,1.0,3.0,86,0.00,,,1.31,,2013-11-01 04:24:00,
2013-10-31 23:34:00,48.0,44.0,29.62,SW,221,1.0,3.0,86,0.00,,,1.31,,2013-11-01 04:34:00,
2013-10-31 23:44:00,48.0,44.0,29.62,SW,221,1.0,3.0,86,0.00,,,1.31,,2013-11-01 04:44:00,
2013-10-31 23:54:00,48.0,44.0,29.62,SW,221,1.0,3.0,86,0.00,,,1.31,,2013-11-01 04:54:00,